Hanford, CA (93230)

04:30 PDT le 29 juillet 2015 (GMT -0700)
North Hanford | | Change Station
CLOSE
Current Station
Stations météorologiques personnelles
Location: Hanford, CA
Altitude: 249 ft
Stations météo à proximité

Alt. 249 ft 36.36 °N, 119.66 °W | Updated 10 minutes ago

Clear
Ciel dégagé
69.1 ° F
Paraît 69.1 ° F
N
0.0
Vent Variable Vent de NE

Aujourd'hui
Haut(e) -- | Bas -- ° F
--% Risque de précip.
Hier
Haut(e) -- | Bas -- ° F
Precip. -- pouce
6:02 AM 8:06 PM
Lune gibbeuse croissante, 95% visible
Pression 29.83 pouce
Visibilité 10.0 Miles terrestres
Nuages Ciel dégagé
Point de rosée 59 ° F
Humidité 70%
Précipitations 0.00 pouce
Profondeur de la couche neigeuse Non disponible.
UV 0 sur 12
Pollen 5.50 sur 12
Qualité de l'air Non disponible.
Flu Activity Non disponible.
METAR KHJO 291053Z AUTO 32003KT 10SM CLR 21/14 A2983 RMK AO2 SLP102 T02060139

More Conditions Fewer Conditions

Pression 29.83 pouce
Visibilité 10.0 Miles terrestres
Nuages Ciel dégagé
Point de rosée 59 ° F
Humidité 70%
Précipitations 0.00 pouce
Profondeur de la couche neigeuse Non disponible.
UV 0 sur 12
Pollen 5.50 sur 12
Qualité de l'air Non disponible.
Flu Activity Non disponible.
METAR KHJO 291053Z AUTO 32003KT 10SM CLR 21/14 A2983 RMK AO2 SLP102 T02060139

More Conditions Fewer Conditions

10-Day Weather Forecast

×

Almanac

Astronomie

Jul. 29, 2015 Lever Coucher
Temps réel
Crépuscule civil
Crépuscule nautique
Crépuscule astronomique
Lune
Durée de lumière visible
Longueur du jour
Tomorrow will be .
, % of the Moon is Illuminated

Extrêmes aujourd'hui

State Highs State Lows

Community

WunderPhotos

Upload Photos

1,842,075 Photos téléchargées !

WunderBlogs® & News

Nearby

Qualité de l'air

  Qualité de l'air Indice de la qualité de l'air Polluant
Not available.

Épaisseur de neige

Station Depth Altitude

Activité sismique

Ville Distance Mag. Time & Date
Minimum magnitude displayed is 2.5.

Températures des eaux côtières

Lieu Température

Stations

Stations météo à proximité

Emplacement de la station Température Refroidissement éolien Point de rosée Humidité Vent Precip. Alt. Mise à jour Type